sensor_id;sensor_type;location;lat;lon;timestamp;pressure;altitude;pressure_sealevel;temperature;humidity
4085;BME280;2057;50.858;6.572;2022-10-26T00:02:23;100200.22;;;12.39;100.00
4085;BME280;2057;50.858;6.572;2022-10-26T00:04:48;100194.44;;;12.45;100.00
4085;BME280;2057;50.858;6.572;2022-10-26T00:07:14;100189.25;;;12.42;100.00
4085;BME280;2057;50.858;6.572;2022-10-26T00:09:39;100188.34;;;12.40;100.00
4085;BME280;2057;50.858;6.572;2022-10-26T00:12:07;100197.53;;;12.36;100.00
4085;BME280;2057;50.858;6.572;2022-10-26T00:14:32;100192.31;;;12.33;100.00
4085;BME280;2057;50.858;6.572;2022-10-26T00:16:57;100192.16;;;12.29;100.00
4085;BME280;2057;50.858;6.572;2022-10-26T00:19:23;100191.81;;;12.42;100.00
4085;BME280;2057;50.858;6.572;2022-10-26T00:21:48;100187.31;;;12.35;100.00
4085;BME280;2057;50.858;6.572;2022-10-26T00:24:14;100181.47;;;12.37;100.00
4085;BME280;2057;50.858;6.572;2022-10-26T00:26:39;100184.25;;;12.21;100.00
4085;BME280;2057;50.858;6.572;2022-10-26T00:29:05;100187.53;;;12.41;100.00
4085;BME280;2057;50.858;6.572;2022-10-26T00:31:30;100182.13;;;12.33;100.00
4085;BME280;2057;50.858;6.572;2022-10-26T00:33:56;100179.69;;;12.35;100.00
4085;BME280;2057;50.858;6.572;2022-10-26T00:36:23;100180.66;;;12.38;100.00
4085;BME280;2057;50.858;6.572;2022-10-26T00:38:50;100182.09;;;12.32;100.00
4085;BME280;2057;50.858;6.572;2022-10-26T00:41:17;100189.25;;;12.42;100.00
4085;BME280;2057;50.858;6.572;2022-10-26T00:43:43;100194.56;;;12.48;100.00
4085;BME280;2057;50.858;6.572;2022-10-26T00:46:12;100191.81;;;12.42;100.00
4085;BME280;2057;50.858;6.572;2022-10-26T00:48:45;100193.63;;;12.46;100.00
4085;BME280;2057;50.858;6.572;2022-10-26T00:51:22;100184.06;;;12.39;100.00
4085;BME280;2057;50.858;6.572;2022-10-26T00:53:48;100178.03;;;12.37;100.00
4085;BME280;2057;50.858;6.572;2022-10-26T00:56:14;100184.75;;;12.35;100.00
4085;BME280;2057;50.858;6.572;2022-10-26T00:58:41;100176.38;;;12.37;100.00
4085;BME280;2057;50.858;6.572;2022-10-26T01:01:06;100174.66;;;12.38;100.00
4085;BME280;2057;50.858;6.572;2022-10-26T01:03:33;100171.34;;;12.63;100.00
4085;BME280;2057;50.858;6.572;2022-10-26T01:06:00;100174.06;;;12.45;100.00
4085;BME280;2057;50.858;6.572;2022-10-26T01:08:27;100169.22;;;12.51;100.00
4085;BME280;2057;50.858;6.572;2022-10-26T01:10:55;100164.56;;;12.64;100.00
4085;BME280;2057;50.858;6.572;2022-10-26T01:13:22;100159.03;;;12.51;100.00
4085;BME280;2057;50.858;6.572;2022-10-26T01:18:29;100151.34;;;12.50;100.00
4085;BME280;2057;50.858;6.572;2022-10-26T01:35:08;100132.03;;;12.57;100.00
4085;BME280;2057;50.858;6.572;2022-10-26T01:37:37;100132.53;;;12.46;100.00
4085;BME280;2057;50.858;6.572;2022-10-26T01:40:11;100128.50;;;12.51;100.00
4085;BME280;2057;50.858;6.572;2022-10-26T01:42:43;100127.28;;;12.42;100.00
4085;BME280;2057;50.858;6.572;2022-10-26T01:45:13;100120.84;;;12.51;100.00
4085;BME280;2057;50.858;6.572;2022-10-26T01:47:43;100117.66;;;12.57;100.00
4085;BME280;2057;50.858;6.572;2022-10-26T01:50:10;100115.47;;;12.68;100.00
4085;BME280;2057;50.858;6.572;2022-10-26T01:52:36;100116.06;;;12.61;100.00
4085;BME280;2057;50.858;6.572;2022-10-26T01:55:36;100114.72;;;12.46;100.00
4085;BME280;2057;50.858;6.572;2022-10-26T01:57:52;100113.78;;;12.44;100.00
4085;BME280;2057;50.858;6.572;2022-10-26T02:00:22;100116.97;;;12.63;100.00
4085;BME280;2057;50.858;6.572;2022-10-26T02:03:03;100102.91;;;12.48;100.00
4085;BME280;2057;50.858;6.572;2022-10-26T02:05:47;100105.66;;;12.54;100.00
4085;BME280;2057;50.858;6.572;2022-10-26T02:08:39;100097.59;;;12.42;100.00
4085;BME280;2057;50.858;6.572;2022-10-26T02:11:38;100093.66;;;12.50;100.00
4085;BME280;2057;50.858;6.572;2022-10-26T02:16:53;100096.53;;;12.35;100.00
4085;BME280;2057;50.858;6.572;2022-10-26T02:22:34;100096.56;;;12.61;100.00
4085;BME280;2057;50.858;6.572;2022-10-26T02:25:06;100103.84;;;12.50;100.00
4085;BME280;2057;50.858;6.572;2022-10-26T02:27:35;100100.34;;;12.48;100.00
4085;BME280;2057;50.858;6.572;2022-10-26T02:30:04;100107.19;;;12.49;100.00
4085;BME280;2057;50.858;6.572;2022-10-26T02:32:31;100096.06;;;12.47;100.00
4085;BME280;2057;50.858;6.572;2022-10-26T02:34:59;100100.34;;;12.48;100.00
4085;BME280;2057;50.858;6.572;2022-10-26T02:37:26;100104.94;;;12.57;100.00
4085;BME280;2057;50.858;6.572;2022-10-26T02:39:54;100092.31;;;12.62;100.00
4085;BME280;2057;50.858;6.572;2022-10-26T02:42:21;100090.69;;;12.64;100.00
4085;BME280;2057;50.858;6.572;2022-10-26T02:44:50;100083.94;;;12.64;100.00
4085;BME280;2057;50.858;6.572;2022-10-26T02:47:18;100081.00;;;12.53;100.00
4085;BME280;2057;50.858;6.572;2022-10-26T02:49:45;100074.44;;;12.60;100.00
4085;BME280;2057;50.858;6.572;2022-10-26T02:54:55;100073.91;;;12.69;100.00
4085;BME280;2057;50.858;6.572;2022-10-26T02:57:35;100066.03;;;12.63;100.00
4085;BME280;2057;50.858;6.572;2022-10-26T03:00:06;100073.47;;;12.57;100.00
4085;BME280;2057;50.858;6.572;2022-10-26T03:02:31;100068.09;;;12.73;100.00
4085;BME280;2057;50.858;6.572;2022-10-26T03:05:06;100072.81;;;12.62;100.00
4085;BME280;2057;50.858;6.572;2022-10-26T03:07:33;100079.25;;;12.77;100.00
4085;BME280;2057;50.858;6.572;2022-10-26T03:09:58;100082.97;;;12.86;100.00
4085;BME280;2057;50.858;6.572;2022-10-26T03:12:24;100077.78;;;12.83;100.00
4085;BME280;2057;50.858;6.572;2022-10-26T03:14:49;100077.34;;;12.71;100.00
4085;BME280;2057;50.858;6.572;2022-10-26T03:17:14;100078.28;;;12.73;100.00
4085;BME280;2057;50.858;6.572;2022-10-26T03:19:40;100080.94;;;12.76;100.00
4085;BME280;2057;50.858;6.572;2022-10-26T03:22:05;100078.38;;;12.76;100.00
4085;BME280;2057;50.858;6.572;2022-10-26T03:24:30;100079.81;;;12.94;100.00
4085;BME280;2057;50.858;6.572;2022-10-26T03:26:56;100075.19;;;13.09;100.00
4085;BME280;2057;50.858;6.572;2022-10-26T03:29:21;100079.16;;;12.99;100.00
4085;BME280;2057;50.858;6.572;2022-10-26T03:31:46;100081.00;;;13.05;100.00
4085;BME280;2057;50.858;6.572;2022-10-26T03:34:13;100082.25;;;12.91;100.00
4085;BME280;2057;50.858;6.572;2022-10-26T03:36:38;100078.88;;;12.92;100.00
4085;BME280;2057;50.858;6.572;2022-10-26T03:39:03;100085.69;;;12.91;100.00
4085;BME280;2057;50.858;6.572;2022-10-26T03:41:29;100083.28;;;12.96;100.00
4085;BME280;2057;50.858;6.572;2022-10-26T03:43:54;100087.91;;;13.08;100.00
4085;BME280;2057;50.858;6.572;2022-10-26T03:46:19;100082.19;;;13.15;100.00
4085;BME280;2057;50.858;6.572;2022-10-26T03:48:45;100087.69;;;13.01;100.00
4085;BME280;2057;50.858;6.572;2022-10-26T03:51:10;100083.34;;;12.99;100.00
4085;BME280;2057;50.858;6.572;2022-10-26T03:53:35;100089.38;;;13.01;100.00
4085;BME280;2057;50.858;6.572;2022-10-26T03:56:01;100086.31;;;13.11;100.00
4085;BME280;2057;50.858;6.572;2022-10-26T03:58:26;100086.69;;;13.24;100.00
4085;BME280;2057;50.858;6.572;2022-10-26T04:00:51;100088.13;;;13.15;100.00
4085;BME280;2057;50.858;6.572;2022-10-26T04:03:17;100087.88;;;13.33;100.00
4085;BME280;2057;50.858;6.572;2022-10-26T04:05:42;100084.34;;;13.30;100.00
4085;BME280;2057;50.858;6.572;2022-10-26T04:08:07;100089.34;;;13.27;100.00
4085;BME280;2057;50.858;6.572;2022-10-26T04:10:33;100086.16;;;13.07;100.00
4085;BME280;2057;50.858;6.572;2022-10-26T04:12:58;100088.81;;;13.37;100.00
4085;BME280;2057;50.858;6.572;2022-10-26T04:15:25;100082.03;;;13.38;100.00
4085;BME280;2057;50.858;6.572;2022-10-26T04:18:01;100088.59;;;13.57;100.00
4085;BME280;2057;50.858;6.572;2022-10-26T04:20:27;100089.59;;;13.34;100.00
4085;BME280;2057;50.858;6.572;2022-10-26T04:22:58;100088.81;;;13.37;100.00
4085;BME280;2057;50.858;6.572;2022-10-26T04:25:23;100087.09;;;13.36;100.00
4085;BME280;2057;50.858;6.572;2022-10-26T04:27:49;100084.84;;;13.45;100.00
4085;BME280;2057;50.858;6.572;2022-10-26T04:30:14;100087.44;;;13.47;100.00
4085;BME280;2057;50.858;6.572;2022-10-26T04:32:40;100089.03;;;13.43;100.00
4085;BME280;2057;50.858;6.572;2022-10-26T04:35:05;100078.63;;;13.37;100.00
4085;BME280;2057;50.858;6.572;2022-10-26T04:37:30;100080.06;;;13.29;100.00
4085;BME280;2057;50.858;6.572;2022-10-26T04:39:57;100080.81;;;13.52;100.00
4085;BME280;2057;50.858;6.572;2022-10-26T04:42:22;100081.53;;;13.48;100.00
4085;BME280;2057;50.858;6.572;2022-10-26T04:44:47;100085.66;;;13.44;100.00
4085;BME280;2057;50.858;6.572;2022-10-26T04:47:13;100102.59;;;13.42;100.00
4085;BME280;2057;50.858;6.572;2022-10-26T04:49:38;100089.31;;;13.53;100.00
4085;BME280;2057;50.858;6.572;2022-10-26T04:52:04;100080.03;;;13.55;100.00
4085;BME280;2057;50.858;6.572;2022-10-26T04:54:30;100079.13;;;13.53;100.00
4085;BME280;2057;50.858;6.572;2022-10-26T04:56:55;100081.84;;;13.59;100.00
4085;BME280;2057;50.858;6.572;2022-10-26T04:59:20;100077.69;;;13.62;100.00
4085;BME280;2057;50.858;6.572;2022-10-26T05:01:46;100073.91;;;13.49;100.00
4085;BME280;2057;50.858;6.572;2022-10-26T05:04:13;100084.13;;;13.49;100.00
4085;BME280;2057;50.858;6.572;2022-10-26T05:06:39;100089.22;;;13.49;100.00
4085;BME280;2057;50.858;6.572;2022-10-26T05:09:04;100089.84;;;13.70;100.00
4085;BME280;2057;50.858;6.572;2022-10-26T05:11:30;100085.06;;;13.53;100.00
4085;BME280;2057;50.858;6.572;2022-10-26T05:13:55;100084.59;;;13.65;100.00
4085;BME280;2057;50.858;6.572;2022-10-26T05:16:20;100086.78;;;13.53;100.00
4085;BME280;2057;50.858;6.572;2022-10-26T05:18:49;100087.59;;;13.52;100.00
4085;BME280;2057;50.858;6.572;2022-10-26T05:21:15;100092.78;;;13.55;100.00
4085;BME280;2057;50.858;6.572;2022-10-26T05:23:48;100095.47;;;13.59;100.00
4085;BME280;2057;50.858;6.572;2022-10-26T05:26:15;100096.78;;;13.75;100.00
4085;BME280;2057;50.858;6.572;2022-10-26T05:28:40;100101.25;;;13.54;100.00
4085;BME280;2057;50.858;6.572;2022-10-26T05:31:06;100099.78;;;13.60;100.00
4085;BME280;2057;50.858;6.572;2022-10-26T05:33:31;100097.97;;;13.58;100.00
4085;BME280;2057;50.858;6.572;2022-10-26T05:35:56;100112.09;;;13.46;100.00
4085;BME280;2057;50.858;6.572;2022-10-26T05:38:22;100106.34;;;13.54;100.00
4085;BME280;2057;50.858;6.572;2022-10-26T05:40:52;100121.66;;;13.54;100.00
4085;BME280;2057;50.858;6.572;2022-10-26T05:43:19;100121.16;;;13.65;100.00
4085;BME280;2057;50.858;6.572;2022-10-26T05:45:45;100124.22;;;13.54;100.00
4085;BME280;2057;50.858;6.572;2022-10-26T05:48:10;100128.78;;;13.64;100.00
4085;BME280;2057;50.858;6.572;2022-10-26T05:50:36;100126.25;;;13.38;100.00
4085;BME280;2057;50.858;6.572;2022-10-26T05:53:01;100126.25;;;13.38;100.00
4085;BME280;2057;50.858;6.572;2022-10-26T05:55:27;100127.19;;;13.40;100.00
4085;BME280;2057;50.858;6.572;2022-10-26T05:57:52;100130.22;;;13.56;100.00
4085;BME280;2057;50.858;6.572;2022-10-26T06:00:20;100145.13;;;13.43;100.00
4085;BME280;2057;50.858;6.572;2022-10-26T06:03:18;100151.75;;;13.38;100.00
4085;BME280;2057;50.858;6.572;2022-10-26T06:05:57;100164.25;;;13.30;100.00
4085;BME280;2057;50.858;6.572;2022-10-26T06:08:25;100165.03;;;13.28;100.00
4085;BME280;2057;50.858;6.572;2022-10-26T06:10:52;100167.41;;;13.23;100.00
4085;BME280;2057;50.858;6.572;2022-10-26T06:13:18;100162.03;;;13.40;100.00
4085;BME280;2057;50.858;6.572;2022-10-26T06:18:24;100146.34;;;13.29;100.00
4085;BME280;2057;50.858;6.572;2022-10-26T06:32:08;100140.16;;;13.21;100.00
4085;BME280;2057;50.858;6.572;2022-10-26T06:34:36;100147.69;;;13.17;100.00
4085;BME280;2057;50.858;6.572;2022-10-26T06:37:03;100152.09;;;13.22;100.00
4085;BME280;2057;50.858;6.572;2022-10-26T06:39:30;100145.88;;;13.13;100.00
4085;BME280;2057;50.858;6.572;2022-10-26T06:41:59;100146.75;;;13.15;100.00
4085;BME280;2057;50.858;6.572;2022-10-26T06:44:25;100151.94;;;13.17;100.00
4085;BME280;2057;50.858;6.572;2022-10-26T06:47:05;100136.72;;;13.20;100.00
4085;BME280;2057;50.858;6.572;2022-10-26T06:49:36;100145.28;;;13.22;100.00
4085;BME280;2057;50.858;6.572;2022-10-26T06:52:17;100152.28;;;13.28;100.00
4085;BME280;2057;50.858;6.572;2022-10-26T06:57:17;100148.44;;;13.39;100.00
4085;BME280;2057;50.858;6.572;2022-10-26T06:59:51;100156.56;;;13.29;100.00
4085;BME280;2057;50.858;6.572;2022-10-26T07:02:18;100151.97;;;13.18;100.00
4085;BME280;2057;50.858;6.572;2022-10-26T07:04:43;100156.75;;;13.35;100.00
4085;BME280;2057;50.858;6.572;2022-10-26T07:07:11;100166.53;;;13.23;100.00
4085;BME280;2057;50.858;6.572;2022-10-26T07:09:38;100164.72;;;13.18;100.00
4085;BME280;2057;50.858;6.572;2022-10-26T07:12:03;100162.22;;;13.20;100.00
4085;BME280;2057;50.858;6.572;2022-10-26T07:14:29;100163.72;;;13.39;100.00
4085;BME280;2057;50.858;6.572;2022-10-26T07:16:54;100173.78;;;13.36;100.00
4085;BME280;2057;50.858;6.572;2022-10-26T07:19:21;100169.47;;;13.33;100.00
4085;BME280;2057;50.858;6.572;2022-10-26T07:21:46;100162.63;;;13.32;100.00
4085;BME280;2057;50.858;6.572;2022-10-26T07:24:12;100158.72;;;13.18;100.00
4085;BME280;2057;50.858;6.572;2022-10-26T07:26:37;100152.09;;;13.22;100.00
4085;BME280;2057;50.858;6.572;2022-10-26T07:29:02;100157.91;;;13.19;100.00
4085;BME280;2057;50.858;6.572;2022-10-26T07:31:28;100162.28;;;13.22;100.00
4085;BME280;2057;50.858;6.572;2022-10-26T07:33:53;100157.56;;;13.08;100.00
4085;BME280;2057;50.858;6.572;2022-10-26T07:36:19;100163.91;;;13.20;100.00
4085;BME280;2057;50.858;6.572;2022-10-26T07:38:44;100164.81;;;13.22;100.00
4085;BME280;2057;50.858;6.572;2022-10-26T07:41:09;100161.16;;;13.13;100.00
4085;BME280;2057;50.858;6.572;2022-10-26T07:43:35;100160.22;;;13.37;100.00
4085;BME280;2057;50.858;6.572;2022-10-26T07:46:00;100161.41;;;13.47;100.00
4085;BME280;2057;50.858;6.572;2022-10-26T07:48:25;100164.63;;;13.41;100.00
4085;BME280;2057;50.858;6.572;2022-10-26T07:50:51;100164.22;;;13.55;100.00
4085;BME280;2057;50.858;6.572;2022-10-26T07:53:16;100166.16;;;13.63;100.00
4085;BME280;2057;50.858;6.572;2022-10-26T07:55:51;100176.97;;;13.55;100.00
4085;BME280;2057;50.858;6.572;2022-10-26T07:58:16;100172.84;;;13.60;100.00
4085;BME280;2057;50.858;6.572;2022-10-26T08:00:42;100172.19;;;13.65;100.00
4085;BME280;2057;50.858;6.572;2022-10-26T08:03:07;100172.50;;;13.76;100.00
4085;BME280;2057;50.858;6.572;2022-10-26T08:05:32;100182.81;;;13.79;100.00
4085;BME280;2057;50.858;6.572;2022-10-26T08:07:59;100172.91;;;13.89;100.00
4085;BME280;2057;50.858;6.572;2022-10-26T08:10:24;100183.09;;;14.18;100.00
4085;BME280;2057;50.858;6.572;2022-10-26T08:12:51;100195.19;;;14.23;100.00
4085;BME280;2057;50.858;6.572;2022-10-26T08:15:16;100191.97;;;14.31;100.00
4085;BME280;2057;50.858;6.572;2022-10-26T08:17:42;100190.13;;;14.25;100.00
4085;BME280;2057;50.858;6.572;2022-10-26T08:20:08;100202.19;;;14.31;100.00
4085;BME280;2057;50.858;6.572;2022-10-26T08:22:33;100196.84;;;14.21;100.00
4085;BME280;2057;50.858;6.572;2022-10-26T08:24:58;100200.88;;;14.43;100.00
4085;BME280;2057;50.858;6.572;2022-10-26T08:27:24;100202.16;;;14.29;100.00
4085;BME280;2057;50.858;6.572;2022-10-26T08:29:49;100200.34;;;14.25;100.00
4085;BME280;2057;50.858;6.572;2022-10-26T08:32:15;100203.75;;;14.25;100.00
4085;BME280;2057;50.858;6.572;2022-10-26T08:34:40;100209.53;;;14.49;100.00
4085;BME280;2057;50.858;6.572;2022-10-26T08:37:05;100202.00;;;14.53;100.00
4085;BME280;2057;50.858;6.572;2022-10-26T08:39:31;100190.75;;;14.47;100.00
4085;BME280;2057;50.858;6.572;2022-10-26T08:42:13;100185.78;;;14.53;100.00
4085;BME280;2057;50.858;6.572;2022-10-26T08:47:20;100199.91;;;14.69;100.00
4085;BME280;2057;50.858;6.572;2022-10-26T08:49:53;100211.09;;;14.74;100.00
4085;BME280;2057;50.858;6.572;2022-10-26T08:52:28;100217.66;;;14.66;100.00
4085;BME280;2057;50.858;6.572;2022-10-26T08:54:56;100214.00;;;14.86;100.00
4085;BME280;2057;50.858;6.572;2022-10-26T08:57:37;100222.53;;;14.87;100.00
4085;BME280;2057;50.858;6.572;2022-10-26T09:00:10;100223.09;;;15.09;100.00
4085;BME280;2057;50.858;6.572;2022-10-26T09:02:35;100234.16;;;15.08;100.00
4085;BME280;2057;50.858;6.572;2022-10-26T09:05:01;100235.16;;;15.13;100.00
4085;BME280;2057;50.858;6.572;2022-10-26T09:10:38;100241.97;;;15.14;100.00
4085;BME280;2057;50.858;6.572;2022-10-26T09:21:21;100249.09;;;15.59;100.00
4085;BME280;2057;50.858;6.572;2022-10-26T09:24:21;100265.59;;;15.71;100.00
4085;BME280;2057;50.858;6.572;2022-10-26T09:26:53;100267.25;;;15.68;100.00
4085;BME280;2057;50.858;6.572;2022-10-26T09:29:22;100259.53;;;15.67;100.00
4085;BME280;2057;50.858;6.572;2022-10-26T09:31:50;100262.31;;;15.76;100.00
4085;BME280;2057;50.858;6.572;2022-10-26T09:34:21;100261.59;;;15.82;100.00
4085;BME280;2057;50.858;6.572;2022-10-26T09:36:52;100260.03;;;15.86;100.00
4085;BME280;2057;50.858;6.572;2022-10-26T09:39:25;100261.09;;;15.95;100.00
4085;BME280;2057;50.858;6.572;2022-10-26T09:41:57;100265.09;;;16.22;100.00
4085;BME280;2057;50.858;6.572;2022-10-26T09:44:30;100264.63;;;16.40;100.00
4085;BME280;2057;50.858;6.572;2022-10-26T09:49:49;100277.31;;;16.74;100.00
4085;BME280;2057;50.858;6.572;2022-10-26T09:52:16;100280.78;;;16.76;100.00
4085;BME280;2057;50.858;6.572;2022-10-26T09:54:42;100287.69;;;17.23;100.00
4085;BME280;2057;50.858;6.572;2022-10-26T09:57:08;100289.88;;;17.50;100.00
4085;BME280;2057;50.858;6.572;2022-10-26T09:59:38;100293.03;;;17.86;98.34
4085;BME280;2057;50.858;6.572;2022-10-26T10:02:39;100305.38;;;18.07;94.57
4085;BME280;2057;50.858;6.572;2022-10-26T10:07:48;100316.25;;;18.49;91.83
4085;BME280;2057;50.858;6.572;2022-10-26T10:10:17;100322.38;;;18.59;92.18
4085;BME280;2057;50.858;6.572;2022-10-26T10:12:43;100324.25;;;18.72;91.28
4085;BME280;2057;50.858;6.572;2022-10-26T10:15:16;100325.09;;;18.71;89.87
4085;BME280;2057;50.858;6.572;2022-10-26T10:17:47;100329.41;;;18.72;89.45
4085;BME280;2057;50.858;6.572;2022-10-26T10:20:26;100333.72;;;18.75;88.99
4085;BME280;2057;50.858;6.572;2022-10-26T10:22:57;100336.47;;;18.86;88.90
4085;BME280;2057;50.858;6.572;2022-10-26T10:25:41;100339.09;;;18.92;89.00
4085;BME280;2057;50.858;6.572;2022-10-26T10:28:25;100345.34;;;19.09;87.89
4085;BME280;2057;50.858;6.572;2022-10-26T10:30:57;100352.97;;;19.03;87.85
4085;BME280;2057;50.858;6.572;2022-10-26T10:33:38;100354.84;;;19.15;88.48
4085;BME280;2057;50.858;6.572;2022-10-26T10:36:08;100357.47;;;19.20;88.23
4085;BME280;2057;50.858;6.572;2022-10-26T10:38:39;100354.84;;;19.15;88.22
4085;BME280;2057;50.858;6.572;2022-10-26T10:41:14;100363.47;;;19.20;86.50
4085;BME280;2057;50.858;6.572;2022-10-26T10:43:50;100364.44;;;19.30;85.81
4085;BME280;2057;50.858;6.572;2022-10-26T10:46:19;100371.25;;;19.23;85.06
4085;BME280;2057;50.858;6.572;2022-10-26T10:48:47;100373.94;;;19.33;83.78
4085;BME280;2057;50.858;6.572;2022-10-26T10:51:18;100377.34;;;19.32;85.23
4085;BME280;2057;50.858;6.572;2022-10-26T10:56:27;100374.88;;;19.44;83.24
4085;BME280;2057;50.858;6.572;2022-10-26T11:04:51;100383.63;;;19.60;82.64
4085;BME280;2057;50.858;6.572;2022-10-26T11:07:27;100379.38;;;19.62;82.86
4085;BME280;2057;50.858;6.572;2022-10-26T11:09:55;100395.81;;;19.77;82.69
4085;BME280;2057;50.858;6.572;2022-10-26T11:12:34;100389.88;;;19.81;80.48
4085;BME280;2057;50.858;6.572;2022-10-26T11:15:09;100389.06;;;19.86;81.01
4085;BME280;2057;50.858;6.572;2022-10-26T11:18:13;100400.31;;;19.93;81.10
4085;BME280;2057;50.858;6.572;2022-10-26T11:20:55;100390.88;;;19.97;80.29
4085;BME280;2057;50.858;6.572;2022-10-26T11:23:32;100390.97;;;20.04;80.42
4085;BME280;2057;50.858;6.572;2022-10-26T11:26:11;100394.47;;;20.13;81.07
4085;BME280;2057;50.858;6.572;2022-10-26T11:28:50;100380.81;;;20.26;81.33
4085;BME280;2057;50.858;6.572;2022-10-26T11:31:23;100384.25;;;20.28;79.63
4085;BME280;2057;50.858;6.572;2022-10-26T11:36:48;100392.97;;;20.46;79.83
4085;BME280;2057;50.858;6.572;2022-10-26T11:42:20;100400.53;;;20.22;79.47
4085;BME280;2057;50.858;6.572;2022-10-26T11:45:08;100397.16;;;20.30;80.35
4085;BME280;2057;50.858;6.572;2022-10-26T11:47:50;100393.72;;;20.29;78.85
4085;BME280;2057;50.858;6.572;2022-10-26T11:50:18;100394.66;;;20.36;78.27
4085;BME280;2057;50.858;6.572;2022-10-26T11:52:53;100393.78;;;20.38;77.79
4085;BME280;2057;50.858;6.572;2022-10-26T11:55:22;100394.75;;;20.53;77.18
4085;BME280;2057;50.858;6.572;2022-10-26T11:57:49;100405.94;;;20.57;78.27
4085;BME280;2057;50.858;6.572;2022-10-26T12:00:16;100401.63;;;20.54;78.17
4085;BME280;2057;50.858;6.572;2022-10-26T12:02:47;100399.94;;;20.59;76.99
4085;BME280;2057;50.858;6.572;2022-10-26T12:05:50;100403.38;;;20.58;78.31
4085;BME280;2057;50.858;6.572;2022-10-26T12:08:23;100411.06;;;20.52;78.38
4085;BME280;2057;50.858;6.572;2022-10-26T12:11:06;100417.13;;;20.60;78.65
4085;BME280;2057;50.858;6.572;2022-10-26T12:21:44;100428.34;;;20.62;79.63
4085;BME280;2057;50.858;6.572;2022-10-26T12:24:45;100427.50;;;20.65;78.37
4085;BME280;2057;50.858;6.572;2022-10-26T12:27:49;100425.91;;;20.81;76.29
4085;BME280;2057;50.858;6.572;2022-10-26T12:35:40;100446.53;;;20.78;74.39
4085;BME280;2057;50.858;6.572;2022-10-26T12:43:32;100446.53;;;20.75;72.67
4085;BME280;2057;50.858;6.572;2022-10-26T12:48:48;100447.38;;;20.74;71.02
4085;BME280;2057;50.858;6.572;2022-10-26T12:53:42;100455.25;;;20.92;70.40
4085;BME280;2057;50.858;6.572;2022-10-26T12:56:10;100455.19;;;20.83;70.68
4085;BME280;2057;50.858;6.572;2022-10-26T12:58:49;100457.81;;;20.94;68.98
4085;BME280;2057;50.858;6.572;2022-10-26T13:01:30;100461.28;;;20.96;69.96
4085;BME280;2057;50.858;6.572;2022-10-26T13:04:19;100463.94;;;21.10;68.87
4085;BME280;2057;50.858;6.572;2022-10-26T13:07:11;100462.16;;;21.03;69.49
4085;BME280;2057;50.858;6.572;2022-10-26T13:09:45;100463.91;;;21.07;69.33
4085;BME280;2057;50.858;6.572;2022-10-26T13:12:12;100462.22;;;21.15;70.09
4085;BME280;2057;50.858;6.572;2022-10-26T13:14:40;100468.16;;;20.98;68.44
4085;BME280;2057;50.858;6.572;2022-10-26T13:17:25;100469.91;;;21.01;67.65
4085;BME280;2057;50.858;6.572;2022-10-26T13:19:59;100469.16;;;21.19;67.75
4085;BME280;2057;50.858;6.572;2022-10-26T13:22:26;100476.00;;;21.19;68.31
4085;BME280;2057;50.858;6.572;2022-10-26T13:24:55;100474.34;;;21.25;68.65
4085;BME280;2057;50.858;6.572;2022-10-26T13:27:39;100476.00;;;21.14;70.87
4085;BME280;2057;50.858;6.572;2022-10-26T13:32:39;100479.38;;;21.04;69.36
4085;BME280;2057;50.858;6.572;2022-10-26T13:35:11;100483.75;;;21.17;70.90
4085;BME280;2057;50.858;6.572;2022-10-26T13:37:40;100486.28;;;21.08;68.96
4085;BME280;2057;50.858;6.572;2022-10-26T13:40:09;100484.59;;;21.10;67.35
4085;BME280;2057;50.858;6.572;2022-10-26T13:42:45;100491.44;;;21.02;68.37
4085;BME280;2057;50.858;6.572;2022-10-26T13:45:15;100493.22;;;21.16;70.06
4085;BME280;2057;50.858;6.572;2022-10-26T13:47:45;100486.28;;;21.08;68.37
4085;BME280;2057;50.858;6.572;2022-10-26T13:50:15;100485.34;;;20.96;68.89
4085;BME280;2057;50.858;6.572;2022-10-26T13:52:46;100499.19;;;21.08;67.04
4085;BME280;2057;50.858;6.572;2022-10-26T13:55:32;100498.28;;;21.03;66.16
4085;BME280;2057;50.858;6.572;2022-10-26T13:58:13;100491.44;;;21.09;66.62
4085;BME280;2057;50.858;6.572;2022-10-26T14:01:00;100498.38;;;21.15;65.67
4085;BME280;2057;50.858;6.572;2022-10-26T14:03:26;100493.22;;;21.15;66.55
4085;BME280;2057;50.858;6.572;2022-10-26T14:05:51;100504.38;;;21.09;66.80
4085;BME280;2057;50.858;6.572;2022-10-26T14:08:18;100498.28;;;21.01;68.33
4085;BME280;2057;50.858;6.572;2022-10-26T14:10:47;100499.16;;;20.98;67.60
4085;BME280;2057;50.858;6.572;2022-10-26T14:13:20;100498.25;;;20.96;67.46
4085;BME280;2057;50.858;6.572;2022-10-26T14:15:46;100495.72;;;20.98;67.02
4085;BME280;2057;50.858;6.572;2022-10-26T14:18:17;100496.59;;;21.05;67.32
4085;BME280;2057;50.858;6.572;2022-10-26T14:20:51;100500.00;;;20.97;69.24
4085;BME280;2057;50.858;6.572;2022-10-26T14:23:34;100499.94;;;20.88;70.82
4085;BME280;2057;50.858;6.572;2022-10-26T14:26:00;100512.78;;;20.76;72.92
4085;BME280;2057;50.858;6.572;2022-10-26T14:28:31;100513.66;;;20.82;69.37
4085;BME280;2057;50.858;6.572;2022-10-26T14:31:20;100521.44;;;20.86;70.49
4085;BME280;2057;50.858;6.572;2022-10-26T14:33:46;100517.03;;;20.74;71.83
4085;BME280;2057;50.858;6.572;2022-10-26T14:36:12;100516.94;;;20.66;72.34
4085;BME280;2057;50.858;6.572;2022-10-26T14:38:43;100524.75;;;20.72;70.98
4085;BME280;2057;50.858;6.572;2022-10-26T14:41:11;100522.88;;;20.54;72.18
4085;BME280;2057;50.858;6.572;2022-10-26T14:43:38;100518.69;;;20.65;71.58
4085;BME280;2057;50.858;6.572;2022-10-26T14:46:03;100523.91;;;20.73;70.20
4085;BME280;2057;50.858;6.572;2022-10-26T14:48:30;100521.22;;;20.64;69.83
4085;BME280;2057;50.858;6.572;2022-10-26T14:51:10;100518.72;;;20.72;70.13
4085;BME280;2057;50.858;6.572;2022-10-26T14:53:40;100519.63;;;20.75;70.69
4085;BME280;2057;50.858;6.572;2022-10-26T14:59:11;100524.78;;;20.75;69.68
4085;BME280;2057;50.858;6.572;2022-10-26T15:01:48;100532.69;;;20.98;68.99
4085;BME280;2057;50.858;6.572;2022-10-26T15:04:41;100538.63;;;20.82;68.77